ADDS METAR Data INFO
IDs: Format: Raw Decoded Include TAF

Data at: 1014 UTC 12 Dec 2017

K4BM 120954Z AUTO 34010G22KT 10SM SCT120 M01/M16 A3057 RMK AO2
K4BM 120936Z AUTO 34011G20KT 10SM SCT120 M01/M16 A3057 RMK AO2 LTG DSNT NW
K4BM 120913Z AUTO 34009G20KT 310V020 10SM CLR M01/M17 A3057 RMK AO2
K4BM 120854Z AUTO 34009G16KT 290V350 10SM CLR M01/M17 A3057 RMK AO2 LTG DSNT NW
K4BM 120836Z AUTO 33009G16KT 10SM CLR M02/M17 A3057 RMK AO2
K4BM 120812Z AUTO 34007KT 300V360 10SM CLR M02/M18 A3057 RMK AO2
K4BM 120753Z AUTO 34006KT 10SM CLR M01/M20 A3058 RMK AO2 LTG DSNT NW
K4BM 120735Z AUTO 32004KT 10SM CLR M01/M21 A3058 RMK AO2
K4BM 120711Z AUTO 29003KT 10SM CLR M01/M21 A3059 RMK AO2 LTG DSNT NW
K4BM 120654Z AUTO 36005KT 10SM CLR M01/M21 A3059 RMK AO2 LTG DSNT NW
K4BM 120636Z AUTO 36005KT 10SM CLR M01/M21 A3058 RMK AO2 LTG DSNT NW
K4BM 120612Z AUTO 01007KT 10SM CLR M01/M21 A3058 RMK AO2 LTG DSNT NW
K4BM 120554Z AUTO 36004KT 10SM CLR M01/M20 A3059 RMK AO2
K4BM 120536Z AUTO 03007KT 10SM CLR 00/M22 A3059 RMK AO2 LTG DSNT NW
K4BM 120512Z AUTO 01005KT 10SM CLR 00/M20 A3059 RMK AO2 LTG DSNT NW
K4BM 120454Z AUTO 35004KT 10SM CLR 00/M20 A3059 RMK AO2
K4BM 120436Z AUTO 00000KT 10SM CLR M01/M19 A3059 RMK AO2 LTG DSNT NW
K4BM 120412Z AUTO 35005KT 10SM CLR M01/M17 A3059 RMK AO2 LTG DSNT NW
K4BM 120354Z AUTO 36005KT 10SM CLR M01/M17 A3059 RMK AO2 LTG DSNT NW
K4BM 120336Z AUTO 33004KT 10SM CLR M02/M16 A3058 RMK AO2 LTG DSNT NW
K4BM 120312Z AUTO 34005KT 10SM CLR M02/M16 A3059 RMK AO2 LTG DSNT NW
K4BM 120254Z AUTO 02010KT 10SM CLR M01/M17 A3059 RMK AO2 LTG DSNT NW
K4BM 120236Z AUTO 35004KT 10SM CLR M01/M18 A3059 RMK AO2 LTG DSNT NW
K4BM 120212Z AUTO 26003KT 10SM CLR M01/M18 A3059 RMK AO2 LTG DSNT NW
K4BM 120153Z AUTO 35006KT 10SM CLR M01/M17 A3059 RMK AO2
K4BM 120135Z AUTO 36008KT 10SM CLR M01/M17 A3059 RMK AO2 LTG DSNT NW
K4BM 120111Z AUTO 01008KT 10SM CLR M01/M17 A3058 RMK AO2 LTG DSNT NW
K4BM 120052Z AUTO 35006G18KT 320V040 10SM CLR M01/M18 A3058 RMK AO2 LTG DSNT NW
K4BM 120034Z AUTO 35009G19KT 10SM CLR M01/M18 A3057 RMK AO2 LTG DSNT NW
K4BM 120012Z AUTO 36009G19KT 330V030 10SM CLR 00/M18 A3057 RMK AO2
K4BM 112354Z AUTO 35008G15KT 320V020 10SM CLR 00/M18 A3056 RMK AO2 LTG DSNT NW
K4BM 112336Z AUTO 35004G16KT 10SM CLR 00/M18 A3056 RMK AO2
K4BM 112312Z AUTO 32003KT 10SM CLR 01/M19 A3056 RMK AO2 LTG DSNT NW
K4BM 112254Z AUTO 34005KT 10SM CLR 01/M20 A3055 RMK AO2
K4BM 112236Z AUTO 35008G15KT 320V020 10SM CLR 02/M21 A3054 RMK AO2
K4BM 112212Z AUTO 35006G14KT 10SM CLR 03/M23 A3053 RMK AO2
K4BM 112154Z AUTO 33011G25KT 10SM CLR 03/M25 A3052 RMK AO2
K4BM 112136Z AUTO 34013G25KT 290V010 10SM CLR 03/M27 A3051 RMK AO2
K4BM 112112Z AUTO 35011G23KT 310V080 10SM CLR 03/M26 A3051 RMK AO2
K4BM 112054Z AUTO 35015G29KT 310V070 10SM CLR 03/M26 A3050 RMK AO2
K4BM 112036Z AUTO 35009G16KT 320V050 10SM CLR 03/M25 A3051 RMK AO2
K4BM 112012Z AUTO 35008G18KT 310V050 10SM CLR 03/M26 A3052 RMK AO2 LTG DSNT NW
K4BM 111954Z AUTO 34007KT 180V040 10SM CLR 05/M27 A3052 RMK AO2 LTG DSNT NW
K4BM 111936Z AUTO 31003KT 10SM CLR 04/M23 A3053 RMK AO2
K4BM 111912Z AUTO 00000KT 10SM CLR 03/M24 A3053 RMK AO2
K4BM 111854Z AUTO 00000KT 10SM CLR 03/M23 A3053 RMK AO2 LTG DSNT NW
K4BM 111836Z AUTO 00000KT 10SM CLR 03/M25 A3054 RMK AO2
K4BM 111812Z AUTO 34006G14KT 10SM CLR 02/M25 A3055 RMK AO2 LTG DSNT NW
K4BM 111754Z AUTO 34009G16KT 10SM CLR 02/M25 A3056 RMK AO2
K4BM 111736Z AUTO 34008G17KT 10SM CLR 02/M25 A3056 RMK AO2 LTG DSNT NW
K4BM 111712Z AUTO 33009G18KT 280V350 10SM CLR 01/M25 A3056 RMK AO2
K4BM 111654Z AUTO 33007G18KT 10SM CLR 01/M24 A3056 RMK AO2
K4BM 111636Z AUTO 33008G19KT 300V360 10SM CLR 00/M23 A3055 RMK AO2 LTG DSNT NW
K4BM 111612Z AUTO 33009G23KT 10SM CLR 00/M23 A3055 RMK AO2
K4BM 111554Z AUTO 32007G23KT 240V010 10SM CLR 00/M23 A3054 RMK AO2 LTG DSNT NW
K4BM 111536Z AUTO 29010G23KT 200V330 10SM CLR 00/M23 A3054 RMK AO2 LTG DSNT NW
K4BM 111512Z AUTO 33011G25KT 280V350 10SM CLR 00/M22 A3054 RMK AO2
K4BM 111454Z AUTO 33013G25KT 300V360 10SM CLR 00/M23 A3053 RMK AO2 LTG DSNT NW
K4BM 111436Z AUTO 34011G30KT 250V360 10SM CLR 00/M22 A3054 RMK AO2
K4BM 111412Z AUTO 34014G24KT 310V010 10SM CLR 00/M23 A3053 RMK AO2 LTG DSNT NW
K4BM 111353Z AUTO 34015G22KT 10SM CLR M01/M22 A3053 RMK AO2
K4BM 111335Z AUTO 34013G25KT 10SM CLR M01/M22 A3054 RMK AO2 LTG DSNT NW
K4BM 111312Z AUTO 33014G28KT 10SM CLR M01/M23 A3054 RMK AO2 LTG DSNT NW
K4BM 111253Z AUTO 35013G26KT 10SM CLR M01/M22 A3053 RMK AO2 LTG DSNT NW
K4BM 111235Z AUTO 34010G24KT 10SM CLR M01/M22 A3053 RMK AO2 LTG DSNT NW
K4BM 111212Z AUTO 34013G23KT 10SM CLR M01/M22 A3053 RMK AO2
K4BM 111153Z AUTO 35013G23KT 320V020 10SM CLR 00/M21 A3053 RMK AO2 LTG DSNT NW
K4BM 111136Z AUTO 35010G20KT 10SM CLR 00/M22 A3054 RMK AO2
K4BM 111112Z AUTO 34009G19KT 10SM CLR 00/M26 A3055 RMK AO2 LTG DSNT NW
K4BM 111054Z AUTO 35010G18KT 10SM CLR 00/M26 A3054 RMK AO2
K4BM 111036Z AUTO 35008G16KT 10SM CLR 00/M26 A3054 RMK AO2
K4BM 111012Z AUTO 36009G18KT 10SM CLR 00/M28 A3055 RMK AO2 LTG DSNT NW
K4BM 110954Z AUTO 35009G16KT 10SM CLR 00/M30 A3055 RMK AO2
K4BM 110936Z AUTO 35011G19KT 10SM CLR 00/M30 A3055 RMK AO2 LTG DSNT NW
K4BM 110912Z AUTO 34012G27KT 280V010 10SM CLR 00/M29 A3055 RMK AO2
K4BM 110855Z AUTO 34012G24KT 10SM SCT110 00/M27 A3055 RMK AO2 LTG DSNT NW
K4BM 110831Z AUTO 32013G25KT 10SM SCT110 00/M26 A3055 RMK AO2 LTG DSNT NW
K4BM 110813Z AUTO 32011G18KT 10SM CLR M01/M26 A3055 RMK AO2
K4BM 110754Z AUTO 31010G16KT 280V340 10SM CLR 00/M26 A3055 RMK AO2 LTG DSNT NW
K4BM 110736Z AUTO 33007G20KT 10SM CLR 00/M26 A3055 RMK AO2
K4BM 110712Z AUTO 32009G22KT 10SM CLR 00/M26 A3055 RMK AO2 LTG DSNT NW
K4BM 110654Z AUTO 33012G19KT 10SM CLR 00/M26 A3056 RMK AO2 LTG DSNT NW
K4BM 110636Z AUTO 35012G22KT 320V020 10SM CLR 00/M26 A3057 RMK AO2 LTG DSNT NW
K4BM 110612Z AUTO 35010G19KT 10SM CLR 00/M25 A3057 RMK AO2 LTG DSNT NW
K4BM 110554Z AUTO 35006KT 10SM CLR M01/M25 A3058 RMK AO2 LTG DSNT NW
K4BM 110536Z AUTO 35005KT 10SM CLR 00/M26 A3057 RMK AO2 LTG DSNT NW
K4BM 110512Z AUTO 35005KT 10SM CLR 00/M26 A3057 RMK AO2 LTG DSNT NW
K4BM 110454Z AUTO 35005KT 10SM CLR 00/M26 A3057 RMK AO2 LTG DSNT NW
K4BM 110436Z AUTO 35005KT 10SM CLR 00/M26 A3057 RMK AO2 LTG DSNT NW
K4BM 110412Z AUTO 35005KT 10SM CLR M01/M26 A3057 RMK AO2 LTG DSNT NW
K4BM 110354Z AUTO 34003KT 10SM CLR 00/M27 A3057 RMK AO2 LTG DSNT NW
K4BM 110336Z AUTO 00000KT 10SM CLR 00/M25 A3057 RMK AO2 LTG DSNT NW
K4BM 110312Z AUTO 34004KT 10SM CLR 00/M26 A3056 RMK AO2
K4BM 110254Z AUTO 35004KT 10SM CLR 00/M26 A3056 RMK AO2 LTG DSNT NW
K4BM 110236Z AUTO 34003KT 10SM CLR 00/M26 A3057 RMK AO2
K4BM 110212Z AUTO 35005KT 10SM CLR 00/M26 A3057 RMK AO2 LTG DSNT NW
K4BM 110154Z AUTO 35004KT 10SM CLR 00/M27 A3057 RMK AO2
K4BM 110136Z AUTO 36005KT 10SM CLR 00/M28 A3057 RMK AO2 LTG DSNT NW
K4BM 110112Z AUTO 35005KT 10SM CLR 00/M28 A3057 RMK AO2 LTG DSNT NW
K4BM 110053Z AUTO 35006KT 10SM CLR 00/M28 A3057 RMK AO2 LTG DSNT NW
K4BM 110035Z AUTO 35005KT 10SM CLR 00/M29 A3057 RMK AO2
K4BM 110011Z AUTO 33005KT 10SM CLR 00/M29 A3056 RMK AO2 LTG DSNT NW
K4BM 102352Z AUTO 32004KT 10SM CLR 01/M29 A3056 RMK AO2
K4BM 102335Z AUTO 33008KT 290V350 10SM CLR 01/M30 A3056 RMK AO2 LTG DSNT NW
K4BM 102311Z AUTO 34007KT 300V010 10SM CLR 02/M31 A3056 RMK AO2
K4BM 102253Z AUTO 28004KT 10SM CLR 02/M30 A3056 RMK AO2
K4BM 102235Z AUTO 30005KT 10SM CLR 03/M31 A3056 RMK AO2